Saint Charles, Virginia
Current Conditions -  °F | °C
As of 1:55 PM on Tuesday 27 Jan 2015 (Local Time) from K0VG Reporting Station
Overcast Overcast  
Wind Chill: 26°   Ceiling: 2900
Heat Index: 32°   Visibility: 10mi
Dew Point: 23°   Wind: 6mph
Humidity: 69%   Direction: 340°NNW
Pressure: 29.98"   Gusts: NA
Location:  36.8°N, 83.06°W
Report Text: K0VG 271855Z AUTO 34005KT 10SM OVC029 00/M05 A2998 RMK AO2
Loading
Personal Weather Stations






























Interactive Weather Map New forecast layout! Learn more

10-Day Weather Forecast

Advertisements
Track Severe Weather on mobile